Archival Weather

Aeroparque Jorge Newbery

Buenos Aires, Argentina (SABE)

Report from: Thursday, February 22, 2024 1:00 AM -03
Current time: Monday, June 24, 2024 8:04 AM -03

Current weather – Weather history – Daily summaries
Weather forecast

Temperature26.0°C (78.8°F)
Dew point21.0°C (69.8°F)
Winds 10 kts (5.1 m/s, 11.5 mph) East-Northeast (70°)
Visibility5.6 mi. (9 km)
Altimeter29.80 in.Hg (1009 mB)
Relative humidity74 %
Density altitude1,750 ft. (533 m)
Remarks No significant changes expected in the next two hours
Flight conditions Visual Meteorological Conditions
Raw dataSABE 220400Z 07010KT 9000 NSC 26/21 Q1009 NOSIG
An error has occurred. This application may no longer respond until reloaded. Reload 🗙